Terminal Aerodrome Forecast
Issued by NWS Louisville, KY

Home | Current Version | Previous Version | Text Only | Print | Product List | Glossary On
Versions: 1 2 3 4 5 6 7 8 9 10 11 12 13 14 15 16 17
000
FTUS43 KLMK 261100
TAFSDF
TAF
KSDF 261139Z 2612/2718 33012G18KT P6SM OVC016
     FM261500 31011KT P6SM BKN019
     FM261800 31009KT P6SM BKN022 BKN060
     FM262000 30006KT P6SM SCT025 BKN050
     FM270500 VRB03KT 4SM -SN BKN018
     FM271300 36006KT P6SM BKN050=

USA.gov is the U.S. government's official web portal to all federal, state and local government web resources and services.